Terminal Aerodrome Forecast
Issued by NWS

Home | Current Version | Previous Version | Text Only | Print | Product List | Glossary Off
Versions: 1 2 3 4 5 6 7 8 9 10 11 12 13 14 15 16

000
FTUS43 KABR 221900 AAA
TAFPIR
TAF AMD
KPIR 221900Z 2219/2318 18015G24KT P6SM SCT035
     FM230200 17014KT P6SM VCTS SCT040CB BKN080
     FM230600 31007KT P6SM VCSH OVC070
     FM230900 29007KT P6SM BKN110=

USA.gov is the U.S. government's official web portal to all federal, state and local government web resources and services.